Terminal Aerodrome Forecast
Issued by NWS Cleveland, OH

Home | Current Version | Previous Version | Text Only | Print | Product List | Glossary On
Versions: 1 2 3 4 5 6 7 8 9 10 11 12 13 14 15 16
000
FTUS41 KCLE 301100
TAFCAK
TAF
KCAK 301120Z 3012/3112 17005KT P6SM BKN250
     FM301500 20012G18KT P6SM SCT060 BKN120
     FM310000 21007KT P6SM OVC100
     FM311000 21010KT 6SM -TSRA BKN035CB OVC100=

USA.gov is the U.S. government's official web portal to all federal, state and local government web resources and services.